Time;durP1;ratioP1;P1;durP2;ratioP2;P2;SDS_P1;SDS_P2;PMS_P1;PMS_P2;Temp;Humidity;BMP_temperature;BMP_pressure;BME280_temperature;BME280_humidity;BME280_pressure;Samples;Min_cycle;Max_cycle;Signal;HPM_P1;HPM_P2
2024/01/01 00:00:34;;;;;;;12.77;10.43;;;9.10;99.90;;;;;;5020507;28;20515;-68
2024/01/01 00:03:00;;;;;;;10.23;6.73;;;9.10;99.90;;;;;;5016724;28;20569;-69
2024/01/01 00:05:25;;;;;;;11.80;6.57;;;9.00;99.90;;;;;;5019806;28;20173;-69
2024/01/01 00:07:51;;;;;;;9.13;5.97;;;9.10;99.90;;;;;;5022626;28;20203;-69
2024/01/01 00:10:20;;;;;;;8.50;5.90;;;9.10;99.90;;;;;;5019994;28;20185;-69
2024/01/01 00:12:46;;;;;;;9.23;5.60;;;9.20;99.90;;;;;;5019182;28;20792;-69
2024/01/01 00:15:12;;;;;;;8.10;5.50;;;9.10;99.90;;;;;;5016161;28;20716;-69
2024/01/01 00:17:38;;;;;;;10.67;5.13;;;9.10;99.90;;;;;;5016363;28;21105;-69
2024/01/01 00:20:05;;;;;;;10.13;5.37;;;9.20;99.90;;;;;;5024522;28;20255;-69
2024/01/01 00:22:31;;;;;;;7.17;5.50;;;9.20;99.90;;;;;;5020153;28;20276;-69
2024/01/01 00:24:57;;;;;;;9.30;5.93;;;9.20;99.90;;;;;;5021231;28;20545;-69
2024/01/01 00:27:24;;;;;;;8.27;5.57;;;9.20;99.90;;;;;;5022305;28;20654;-69
2024/01/01 00:29:50;;;;;;;11.23;6.53;;;9.10;99.90;;;;;;5017626;28;20426;-69
2024/01/01 00:32:16;;;;;;;10.53;5.60;;;9.20;99.90;;;;;;5015619;28;20472;-69
2024/01/01 00:34:42;;;;;;;9.00;4.53;;;9.20;99.90;;;;;;5020968;28;20189;-69
2024/01/01 00:37:08;;;;;;;6.90;4.23;;;9.10;99.90;;;;;;5021298;28;21149;-69
2024/01/01 00:39:33;;;;;;;9.87;5.33;;;9.20;99.90;;;;;;5016853;28;20533;-69
2024/01/01 00:41:59;;;;;;;7.80;4.80;;;9.10;99.90;;;;;;5023167;28;20203;-69
2024/01/01 00:44:26;;;;;;;10.70;4.70;;;9.20;99.90;;;;;;5016277;28;20223;-69
2024/01/01 00:46:51;;;;;;;7.60;4.40;;;9.20;99.90;;;;;;5021253;28;20169;-69
2024/01/01 00:49:17;;;;;;;7.67;4.30;;;9.20;99.90;;;;;;5017934;28;20430;-69
2024/01/01 00:51:43;;;;;;;5.10;3.90;;;9.10;99.90;;;;;;5013737;28;20284;-71
2024/01/01 00:54:09;;;;;;;5.97;4.67;;;9.20;99.90;;;;;;5016602;28;20201;-69
2024/01/01 00:56:35;;;;;;;10.50;4.47;;;9.20;99.90;;;;;;5020363;28;20242;-69
2024/01/01 00:59:00;;;;;;;12.00;5.50;;;9.20;99.90;;;;;;5019820;28;20427;-69
2024/01/01 01:01:26;;;;;;;10.20;5.87;;;9.30;99.90;;;;;;5022832;28;20222;-69
2024/01/01 01:03:52;;;;;;;12.83;7.10;;;9.30;99.90;;;;;;5016955;28;20259;-69
2024/01/01 01:06:19;;;;;;;8.70;6.13;;;9.30;99.90;;;;;;5019130;28;20607;-69
2024/01/01 01:08:44;;;;;;;9.73;6.60;;;9.20;99.90;;;;;;5010192;28;20603;-69
2024/01/01 01:11:10;;;;;;;10.37;8.00;;;9.20;99.90;;;;;;5019318;28;21051;-67
2024/01/01 01:13:36;;;;;;;8.10;6.90;;;9.10;99.90;;;;;;5020188;28;20204;-69
2024/01/01 01:16:02;;;;;;;14.57;8.20;;;9.20;99.90;;;;;;5014267;28;20191;-69
2024/01/01 01:18:28;;;;;;;11.30;8.40;;;9.10;99.90;;;;;;5015932;28;20222;-69
2024/01/01 01:20:53;;;;;;;11.83;8.30;;;9.10;99.90;;;;;;5022077;28;20878;-69
2024/01/01 01:23:19;;;;;;;11.43;8.30;;;9.10;99.90;;;;;;5012076;28;20205;-69
2024/01/01 01:25:44;;;;;;;10.80;7.73;;;8.90;99.90;;;;;;5025298;28;20199;-69
2024/01/01 01:28:10;;;;;;;14.70;7.90;;;8.80;99.90;;;;;;5019361;28;20174;-69
2024/01/01 01:30:35;;;;;;;11.87;7.27;;;8.90;99.90;;;;;;5012661;28;20181;-69
2024/01/01 01:33:01;;;;;;;12.57;7.00;;;8.90;99.90;;;;;;5013492;28;20220;-69
2024/01/01 01:35:27;;;;;;;10.60;6.70;;;8.80;99.90;;;;;;5014119;28;20188;-69
2024/01/01 01:37:52;;;;;;;8.90;5.73;;;8.90;99.90;;;;;;5016228;28;20192;-69
2024/01/01 01:40:18;;;;;;;7.70;5.30;;;8.80;99.90;;;;;;5022409;28;20330;-69
2024/01/01 01:42:47;;;;;;;8.00;5.27;;;8.80;99.90;;;;;;5019834;28;20356;-69
2024/01/01 01:45:13;;;;;;;8.33;5.70;;;8.90;99.90;;;;;;5016504;28;20188;-69
2024/01/01 01:47:40;;;;;;;7.10;4.47;;;8.90;99.90;;;;;;5016866;28;20424;-69
2024/01/01 01:50:07;;;;;;;7.67;4.47;;;9.00;99.90;;;;;;5015874;28;20418;-69
2024/01/01 01:52:37;;;;;;;5.43;3.57;;;9.00;99.90;;;;;;5019649;28;20489;-69
2024/01/01 01:55:04;;;;;;;6.77;3.53;;;9.00;99.90;;;;;;5023478;28;20523;-69
2024/01/01 01:57:30;;;;;;;8.90;3.87;;;9.00;99.90;;;;;;5018286;28;20491;-69
2024/01/01 01:59:56;;;;;;;4.87;3.60;;;9.00;99.90;;;;;;5018510;28;20515;-69
2024/01/01 02:02:24;;;;;;;6.97;3.90;;;8.90;99.90;;;;;;5016410;28;20796;-69
2024/01/01 02:04:50;;;;;;;7.27;3.00;;;9.00;99.90;;;;;;5015186;28;20578;-69
2024/01/01 02:07:16;;;;;;;6.70;3.17;;;9.00;99.90;;;;;;5017009;28;20883;-69
2024/01/01 02:09:41;;;;;;;7.27;2.80;;;9.00;99.90;;;;;;5016069;28;20521;-69
2024/01/01 02:12:08;;;;;;;6.40;3.27;;;9.00;99.90;;;;;;5015181;28;20432;-69
2024/01/01 02:14:34;;;;;;;5.30;3.40;;;9.10;99.90;;;;;;5014637;28;20210;-69
2024/01/01 02:17:00;;;;;;;6.17;4.53;;;9.00;99.90;;;;;;5016351;28;20421;-69
2024/01/01 02:19:26;;;;;;;7.90;2.40;;;9.00;99.90;;;;;;5016887;28;20182;-69
2024/01/01 02:21:53;;;;;;;7.93;2.50;;;9.00;99.90;;;;;;5021606;28;20185;-69
2024/01/01 02:24:19;;;;;;;9.03;2.97;;;9.00;99.90;;;;;;5014185;28;20957;-69
2024/01/01 02:26:45;;;;;;;7.00;2.70;;;9.00;99.90;;;;;;5017153;28;20427;-69
2024/01/01 02:29:12;;;;;;;5.63;3.20;;;9.00;99.90;;;;;;5019402;28;20428;-69
2024/01/01 02:31:38;;;;;;;4.07;2.60;;;9.00;99.90;;;;;;5011013;28;20460;-69
2024/01/01 02:34:03;;;;;;;11.50;2.90;;;9.00;99.90;;;;;;5015550;28;20984;-69
2024/01/01 02:36:30;;;;;;;5.37;2.80;;;9.00;99.90;;;;;;5018341;28;20177;-69
2024/01/01 02:38:55;;;;;;;5.33;2.93;;;9.00;99.90;;;;;;5013981;28;20620;-69
2024/01/01 02:41:21;;;;;;;6.80;3.30;;;9.00;99.90;;;;;;5010421;28;20443;-69
2024/01/01 02:43:46;;;;;;;4.60;2.70;;;8.90;99.90;;;;;;5017466;28;20215;-69
2024/01/01 02:46:12;;;;;;;8.10;3.60;;;9.00;99.90;;;;;;5018845;28;20176;-69
2024/01/01 02:48:38;;;;;;;5.10;2.67;;;8.90;99.90;;;;;;5020484;28;20242;-69
2024/01/01 02:51:03;;;;;;;4.83;2.87;;;8.90;99.90;;;;;;5014408;28;20251;-69
2024/01/01 02:53:29;;;;;;;6.40;3.53;;;8.80;99.90;;;;;;5011953;28;20204;-69
2024/01/01 02:55:55;;;;;;;4.90;2.47;;;8.90;99.90;;;;;;5018033;28;20191;-69
2024/01/01 02:58:21;;;;;;;5.10;3.40;;;8.90;99.90;;;;;;5020330;28;20207;-69
2024/01/01 03:00:47;;;;;;;7.53;3.30;;;8.90;99.90;;;;;;5025498;28;20704;-69
2024/01/01 03:03:14;;;;;;;7.40;3.20;;;8.80;99.90;;;;;;5020674;28;20799;-69
2024/01/01 03:05:41;;;;;;;6.20;3.40;;;8.80;99.90;;;;;;5016286;28;20573;-69
2024/01/01 03:08:07;;;;;;;6.70;3.50;;;8.80;99.90;;;;;;5021666;28;21047;-69
2024/01/01 03:10:33;;;;;;;5.03;2.87;;;8.80;99.90;;;;;;5021698;28;20506;-69
2024/01/01 03:12:59;;;;;;;3.80;2.07;;;8.90;99.90;;;;;;5022142;28;20561;-69
2024/01/01 03:15:24;;;;;;;5.73;3.03;;;8.90;99.90;;;;;;5014659;28;20181;-69
2024/01/01 03:17:51;;;;;;;8.20;2.70;;;8.90;99.90;;;;;;5020210;28;20188;-69
2024/01/01 03:20:16;;;;;;;5.83;3.20;;;8.80;99.90;;;;;;5012670;28;20196;-69
2024/01/01 03:22:42;;;;;;;7.77;3.20;;;8.80;99.90;;;;;;5014328;28;20451;-69
2024/01/01 03:25:09;;;;;;;7.60;2.73;;;8.90;99.90;;;;;;5010879;28;20193;-69
2024/01/01 03:27:35;;;;;;;7.13;3.03;;;8.80;99.90;;;;;;5017085;28;20215;-69
2024/01/01 03:30:05;;;;;;;4.37;2.83;;;8.80;99.90;;;;;;5016950;28;20455;-69
2024/01/01 03:32:35;;;;;;;4.30;2.53;;;8.80;99.90;;;;;;5014171;28;21273;-69
2024/01/01 03:35:01;;;;;;;4.80;2.70;;;8.80;99.90;;;;;;5013013;28;20434;-69
2024/01/01 03:37:26;;;;;;;7.47;3.07;;;8.90;99.90;;;;;;5021500;28;20423;-69
2024/01/01 03:39:52;;;;;;;4.33;2.37;;;8.80;99.90;;;;;;5016067;28;20517;-69
2024/01/01 03:42:17;;;;;;;3.60;2.20;;;8.80;99.90;;;;;;5018934;28;20177;-69
2024/01/01 03:44:43;;;;;;;5.33;2.20;;;8.80;99.90;;;;;;5018000;28;20205;-69
2024/01/01 03:47:08;;;;;;;6.40;2.70;;;8.80;99.90;;;;;;5013275;28;20172;-69
2024/01/01 03:49:34;;;;;;;7.73;2.60;;;8.60;99.90;;;;;;5009478;28;20218;-69
2024/01/01 03:52:00;;;;;;;5.50;2.13;;;8.70;99.90;;;;;;5020159;28;20243;-69
2024/01/01 03:54:25;;;;;;;9.30;2.30;;;8.80;99.90;;;;;;5011965;28;20193;-69
2024/01/01 03:56:51;;;;;;;6.13;2.10;;;8.80;99.90;;;;;;5018031;28;20689;-69
2024/01/01 03:59:16;;;;;;;7.67;2.30;;;8.80;99.90;;;;;;5015711;28;20209;-69
2024/01/01 04:01:42;;;;;;;7.77;1.80;;;8.80;99.90;;;;;;5009946;28;20215;-69
2024/01/01 04:04:09;;;;;;;3.17;1.87;;;8.70;99.90;;;;;;5011052;28;20205;-69
2024/01/01 04:06:34;;;;;;;3.83;2.13;;;8.70;99.90;;;;;;5016207;28;20184;-69
2024/01/01 04:09:01;;;;;;;5.40;1.80;;;8.80;99.90;;;;;;5014981;28;20530;-69
2024/01/01 04:11:26;;;;;;;12.70;2.80;;;8.80;99.90;;;;;;5015271;28;20262;-70
2024/01/01 04:13:52;;;;;;;6.37;2.30;;;8.80;99.90;;;;;;5014793;28;20436;-68
2024/01/01 04:16:17;;;;;;;5.07;1.80;;;8.90;99.90;;;;;;5016031;28;20184;-67
2024/01/01 04:18:43;;;;;;;5.87;2.43;;;8.90;99.90;;;;;;5013281;28;20275;-67
2024/01/01 04:21:09;;;;;;;6.77;2.20;;;8.80;99.90;;;;;;5020711;28;20176;-67
2024/01/01 04:23:34;;;;;;;5.40;2.03;;;8.70;99.90;;;;;;5011696;28;20227;-68
2024/01/01 04:26:00;;;;;;;4.67;1.90;;;8.80;99.90;;;;;;5020566;28;20188;-68
2024/01/01 04:28:26;;;;;;;7.60;1.73;;;8.90;99.90;;;;;;5010394;28;20191;-68
2024/01/01 04:30:51;;;;;;;3.20;1.70;;;8.90;99.90;;;;;;5009852;28;20201;-68
2024/01/01 04:33:19;;;;;;;3.80;2.10;;;8.90;99.90;;;;;;5011971;28;20203;-68
2024/01/01 04:35:44;;;;;;;5.67;1.50;;;9.00;99.90;;;;;;5018663;28;20220;-68
2024/01/01 04:38:10;;;;;;;5.57;1.60;;;9.00;99.90;;;;;;5022297;28;20435;-68
2024/01/01 04:40:36;;;;;;;5.17;2.00;;;9.10;99.90;;;;;;5025923;28;20773;-68
2024/01/01 04:43:01;;;;;;;6.10;1.60;;;9.00;99.90;;;;;;5022976;28;20220;-68
2024/01/01 04:45:28;;;;;;;4.40;1.97;;;9.00;99.90;;;;;;5020725;28;20248;-68
2024/01/01 04:47:53;;;;;;;9.70;2.43;;;9.00;99.90;;;;;;5022441;28;20177;-68
2024/01/01 04:50:19;;;;;;;4.17;1.63;;;9.00;99.90;;;;;;5017140;28;20431;-68
2024/01/01 04:52:44;;;;;;;4.97;1.80;;;9.00;99.90;;;;;;5013518;28;20215;-68
2024/01/01 04:55:10;;;;;;;5.50;1.57;;;9.00;99.90;;;;;;5019513;28;20189;-68
2024/01/01 04:57:35;;;;;;;10.50;2.83;;;9.10;99.90;;;;;;5019095;28;20288;-68
2024/01/01 05:00:02;;;;;;;5.67;1.70;;;9.10;99.90;;;;;;5023779;28;20185;-68
2024/01/01 05:02:28;;;;;;;5.00;1.57;;;9.10;99.90;;;;;;5020671;28;20177;-68
2024/01/01 05:04:54;;;;;;;4.20;1.37;;;9.10;99.90;;;;;;5020916;28;20458;-68
2024/01/01 05:07:19;;;;;;;4.03;1.60;;;9.10;99.90;;;;;;5020047;28;20185;-68
2024/01/01 05:09:45;;;;;;;5.70;1.83;;;9.00;99.90;;;;;;5021646;28;20212;-68
2024/01/01 05:12:14;;;;;;;5.90;1.87;;;9.10;99.90;;;;;;5022010;28;20201;-68
2024/01/01 05:14:39;;;;;;;5.27;1.87;;;9.00;99.90;;;;;;5022721;28;20671;-68
2024/01/01 05:17:05;;;;;;;5.17;2.27;;;9.00;99.90;;;;;;5020885;28;20499;-69
2024/01/01 05:19:30;;;;;;;7.63;2.23;;;9.10;99.90;;;;;;5016679;28;20565;-68
2024/01/01 05:21:56;;;;;;;5.40;2.40;;;9.00;99.90;;;;;;5015853;28;20181;-68
2024/01/01 05:24:22;;;;;;;4.17;1.93;;;8.90;99.90;;;;;;5028213;28;20253;-68
2024/01/01 05:26:47;;;;;;;7.40;2.37;;;9.00;99.90;;;;;;5012566;28;20553;-68
2024/01/01 05:29:13;;;;;;;4.73;1.70;;;8.80;99.90;;;;;;5024048;28;20208;-68
2024/01/01 05:31:38;;;;;;;10.17;1.90;;;9.00;99.90;;;;;;5015097;28;20216;-68
2024/01/01 05:34:04;;;;;;;5.13;1.60;;;9.00;99.90;;;;;;5029302;28;20627;-68
2024/01/01 05:36:30;;;;;;;6.23;2.00;;;9.10;99.90;;;;;;5018104;28;20184;-68
2024/01/01 05:38:55;;;;;;;3.80;1.70;;;9.10;99.90;;;;;;5023570;28;20260;-68
2024/01/01 05:41:21;;;;;;;8.97;2.00;;;9.10;99.90;;;;;;5019231;28;20263;-68
2024/01/01 05:43:46;;;;;;;4.93;2.00;;;9.20;99.90;;;;;;5022088;28;20287;-68
2024/01/01 05:46:12;;;;;;;4.90;2.03;;;9.20;99.90;;;;;;5021692;28;20181;-69
2024/01/01 05:48:37;;;;;;;4.40;1.87;;;9.20;99.90;;;;;;5016645;28;20639;-68
2024/01/01 05:51:03;;;;;;;6.00;1.90;;;9.20;99.90;;;;;;5022336;28;20532;-68
2024/01/01 05:53:29;;;;;;;6.23;2.00;;;9.20;99.90;;;;;;5014170;28;20205;-68
2024/01/01 05:55:54;;;;;;;4.63;1.60;;;9.20;99.90;;;;;;5018170;28;20429;-68
2024/01/01 05:58:20;;;;;;;4.90;1.43;;;9.20;99.90;;;;;;5021693;28;20187;-68
2024/01/01 06:00:46;;;;;;;5.33;1.50;;;9.20;99.90;;;;;;5013828;28;20224;-69
2024/01/01 06:03:11;;;;;;;4.40;1.90;;;9.20;99.90;;;;;;5018521;28;20199;-69
2024/01/01 06:05:37;;;;;;;3.50;1.67;;;9.20;99.90;;;;;;5020379;28;20206;-69
2024/01/01 06:08:03;;;;;;;5.70;1.83;;;9.10;99.90;;;;;;5022527;28;20254;-68
2024/01/01 06:10:30;;;;;;;7.03;2.33;;;9.10;99.90;;;;;;5016329;28;20238;-68
2024/01/01 06:12:56;;;;;;;4.20;2.27;;;9.10;99.90;;;;;;5023622;28;20466;-68
2024/01/01 06:15:23;;;;;;;7.40;2.30;;;9.10;99.90;;;;;;5018500;28;20412;-68
2024/01/01 06:17:49;;;;;;;10.87;1.87;;;9.10;99.90;;;;;;5013838;28;20795;-68
2024/01/01 06:20:15;;;;;;;6.90;2.83;;;9.00;99.90;;;;;;5011838;28;20427;-68
2024/01/01 06:22:40;;;;;;;6.03;1.87;;;8.90;99.90;;;;;;5016649;28;20199;-68
2024/01/01 06:25:08;;;;;;;4.57;1.77;;;8.90;99.90;;;;;;5015622;28;20569;-68
2024/01/01 06:27:34;;;;;;;6.33;1.80;;;8.90;99.90;;;;;;5017328;28;20235;-68
2024/01/01 06:29:59;;;;;;;4.13;1.63;;;8.80;99.90;;;;;;5022568;28;20479;-68
2024/01/01 06:32:25;;;;;;;6.07;2.03;;;8.80;99.90;;;;;;5022187;28;20227;-68
2024/01/01 06:34:50;;;;;;;7.37;2.40;;;8.80;99.90;;;;;;5019697;28;20205;-68
2024/01/01 06:37:16;;;;;;;5.10;2.47;;;8.80;99.90;;;;;;5017466;28;20626;-68
2024/01/01 06:39:41;;;;;;;6.50;1.90;;;8.70;99.90;;;;;;5015265;28;20181;-68
2024/01/01 06:42:07;;;;;;;3.47;1.60;;;8.70;99.90;;;;;;5011145;28;20181;-68
2024/01/01 06:44:32;;;;;;;4.00;1.67;;;8.70;99.90;;;;;;5013142;28;20223;-68
2024/01/01 06:46:58;;;;;;;5.07;1.73;;;8.70;99.90;;;;;;5014038;28;20228;-68
2024/01/01 06:49:23;;;;;;;12.73;2.20;;;8.70;99.90;;;;;;5016611;28;20193;-68
2024/01/01 06:51:52;;;;;;;5.53;2.03;;;8.70;99.90;;;;;;5019203;28;20574;-68
2024/01/01 06:54:18;;;;;;;5.63;1.93;;;8.70;99.90;;;;;;5015187;28;20206;-68
2024/01/01 06:56:44;;;;;;;3.93;1.63;;;8.80;99.90;;;;;;5017617;28;20931;-68
2024/01/01 06:59:12;;;;;;;3.90;1.60;;;8.90;99.90;;;;;;5016943;28;20176;-68
2024/01/01 07:01:38;;;;;;;4.53;1.70;;;8.80;99.90;;;;;;5011906;28;20268;-68
2024/01/01 07:04:03;;;;;;;4.73;1.90;;;8.80;99.90;;;;;;5020065;28;20666;-68
2024/01/01 07:06:29;;;;;;;4.50;1.87;;;8.80;99.90;;;;;;5017388;28;20625;-68
2024/01/01 07:08:55;;;;;;;5.50;2.23;;;8.70;99.90;;;;;;5015535;28;20192;-68
2024/01/01 07:11:20;;;;;;;4.40;1.73;;;8.70;99.90;;;;;;5016204;28;20646;-69
2024/01/01 07:13:46;;;;;;;4.50;2.30;;;8.70;99.90;;;;;;5016440;28;20250;-68
2024/01/01 07:16:12;;;;;;;8.97;2.37;;;8.70;99.90;;;;;;5021756;28;20176;-68
2024/01/01 07:18:37;;;;;;;5.53;1.87;;;8.70;99.90;;;;;;5015110;28;20223;-69
2024/01/01 07:21:03;;;;;;;6.77;2.27;;;8.60;99.90;;;;;;5015363;28;20215;-69
2024/01/01 07:23:30;;;;;;;9.23;2.00;;;8.70;99.90;;;;;;5009237;28;20723;-68
2024/01/01 07:25:56;;;;;;;7.93;2.00;;;8.60;99.90;;;;;;5013302;28;20476;-68
2024/01/01 07:28:23;;;;;;;7.80;2.40;;;8.70;99.90;;;;;;5013682;28;20419;-68
2024/01/01 07:30:48;;;;;;;7.23;2.00;;;8.60;99.90;;;;;;5018374;28;20705;-68
2024/01/01 07:33:14;;;;;;;11.30;2.30;;;8.70;99.90;;;;;;5007919;28;20478;-68
2024/01/01 07:35:39;;;;;;;4.87;1.53;;;8.70;99.90;;;;;;5009938;28;20195;-68
2024/01/01 07:38:05;;;;;;;5.13;1.50;;;8.70;99.90;;;;;;5014674;28;20224;-68
2024/01/01 07:40:30;;;;;;;4.10;1.70;;;8.70;99.90;;;;;;5012390;28;20678;-68
2024/01/01 07:42:56;;;;;;;7.93;1.87;;;8.70;99.90;;;;;;5017066;28;20214;-68
2024/01/01 07:45:22;;;;;;;5.97;2.40;;;8.60;99.90;;;;;;5016325;28;20177;-68
2024/01/01 07:47:48;;;;;;;8.93;2.17;;;8.70;99.90;;;;;;5011893;28;20196;-68
2024/01/01 07:50:13;;;;;;;10.17;2.60;;;8.70;99.90;;;;;;5023121;28;20442;-68
2024/01/01 07:52:39;;;;;;;4.40;1.77;;;8.70;99.90;;;;;;5014523;28;20262;-68
2024/01/01 07:55:06;;;;;;;5.80;2.00;;;8.70;99.90;;;;;;5022580;28;20265;-68
2024/01/01 07:57:33;;;;;;;5.27;1.90;;;8.70;99.90;;;;;;5011918;28;20185;-68
2024/01/01 07:59:58;;;;;;;5.47;2.10;;;8.70;99.90;;;;;;5019543;28;20419;-68
2024/01/01 08:02:24;;;;;;;4.20;2.50;;;8.80;99.90;;;;;;5014303;28;20669;-68
2024/01/01 08:04:50;;;;;;;5.53;1.70;;;8.70;99.90;;;;;;5016798;28;20457;-68
2024/01/01 08:07:16;;;;;;;3.67;1.50;;;8.70;99.90;;;;;;5009366;28;20933;-68
2024/01/01 08:09:41;;;;;;;4.77;1.50;;;8.70;99.90;;;;;;5015054;28;20185;-68
2024/01/01 08:12:07;;;;;;;9.97;1.90;;;8.70;99.90;;;;;;5021458;28;20247;-68
2024/01/01 08:14:33;;;;;;;6.13;1.70;;;8.70;99.90;;;;;;5019886;28;20212;-68
2024/01/01 08:16:58;;;;;;;10.67;2.47;;;8.70;99.90;;;;;;5017648;28;20204;-68
2024/01/01 08:19:24;;;;;;;8.37;1.80;;;8.60;99.90;;;;;;5021671;28;20447;-68
2024/01/01 08:21:49;;;;;;;6.40;1.80;;;8.70;99.90;;;;;;5013688;28;20195;-68
2024/01/01 08:24:15;;;;;;;3.73;1.83;;;8.70;99.90;;;;;;5019983;28;20632;-68
2024/01/01 08:26:40;;;;;;;2.97;1.50;;;8.70;99.90;;;;;;5016156;28;20222;-68
2024/01/01 08:29:06;;;;;;;6.40;2.03;;;8.70;99.90;;;;;;5019598;28;20335;-68
2024/01/01 08:31:32;;;;;;;3.30;1.50;;;8.80;99.90;;;;;;5021981;28;20228;-68
2024/01/01 08:33:57;;;;;;;8.60;1.87;;;8.80;99.90;;;;;;5018237;28;20205;-68
2024/01/01 08:36:23;;;;;;;6.73;1.70;;;8.90;99.90;;;;;;5015449;28;20196;-68
2024/01/01 08:38:49;;;;;;;9.33;2.00;;;9.00;99.90;;;;;;5013186;28;20207;-68
2024/01/01 08:41:14;;;;;;;5.00;1.63;;;9.10;99.90;;;;;;5021352;28;20216;-68
2024/01/01 08:43:40;;;;;;;5.57;2.07;;;9.10;99.90;;;;;;5013968;28;20589;-68
2024/01/01 08:46:06;;;;;;;6.20;1.70;;;9.10;99.90;;;;;;5010734;28;21040;-68
2024/01/01 08:48:32;;;;;;;4.60;1.90;;;9.00;99.90;;;;;;5019282;28;20188;-68
2024/01/01 08:50:58;;;;;;;3.43;1.50;;;9.00;99.90;;;;;;5021752;28;20182;-68
2024/01/01 08:53:23;;;;;;;10.00;2.17;;;9.00;99.90;;;;;;5016647;28;20443;-68
2024/01/01 08:55:49;;;;;;;5.70;2.07;;;9.00;99.90;;;;;;5014511;28;20674;-68
2024/01/01 08:58:15;;;;;;;4.90;1.67;;;9.00;99.90;;;;;;5016276;28;20181;-68
2024/01/01 09:00:41;;;;;;;10.77;2.23;;;9.00;99.90;;;;;;5018563;28;20670;-68
2024/01/01 09:03:06;;;;;;;3.37;1.40;;;9.00;99.90;;;;;;5012274;28;20444;-68
2024/01/01 09:05:32;;;;;;;5.07;1.87;;;9.00;99.90;;;;;;5012771;28;20640;-68
2024/01/01 09:07:57;;;;;;;3.93;1.70;;;9.10;99.90;;;;;;5012605;28;20636;-68
2024/01/01 09:10:23;;;;;;;10.67;2.00;;;9.20;99.90;;;;;;5015487;28;20187;-68
2024/01/01 09:12:49;;;;;;;10.07;4.30;;;9.30;99.90;;;;;;5018093;28;20612;-68
2024/01/01 09:15:17;;;;;;;5.60;1.63;;;9.40;99.90;;;;;;5017513;28;20604;-69
2024/01/01 09:17:43;;;;;;;3.93;1.40;;;9.30;99.90;;;;;;5015207;28;20800;-69
2024/01/01 09:20:10;;;;;;;5.23;1.70;;;9.30;99.90;;;;;;5014923;28;20432;-68
2024/01/01 09:22:35;;;;;;;4.73;1.70;;;9.30;99.90;;;;;;5017884;28;20478;-68
2024/01/01 09:25:01;;;;;;;10.03;1.93;;;9.40;99.90;;;;;;5019450;28;20456;-68
2024/01/01 09:27:27;;;;;;;3.87;1.53;;;9.40;99.90;;;;;;5019217;28;20192;-68
2024/01/01 09:29:53;;;;;;;6.43;1.90;;;9.30;99.90;;;;;;5022306;28;20188;-68
2024/01/01 09:32:18;;;;;;;7.87;2.13;;;9.20;99.90;;;;;;5022613;28;20549;-69
2024/01/01 09:34:44;;;;;;;4.07;1.43;;;9.30;99.90;;;;;;5024471;28;20502;-69
2024/01/01 09:37:09;;;;;;;4.97;1.73;;;9.30;99.90;;;;;;5019127;28;20565;-69
2024/01/01 09:39:35;;;;;;;2.70;1.40;;;9.40;99.90;;;;;;5019157;28;20212;-69
2024/01/01 09:42:03;;;;;;;5.40;1.70;;;9.40;99.90;;;;;;5014914;28;20276;-68
2024/01/01 09:44:29;;;;;;;4.63;1.70;;;9.30;99.90;;;;;;5013342;28;20196;-68
2024/01/01 09:46:55;;;;;;;7.07;1.87;;;9.40;99.90;;;;;;5016528;28;21129;-68
2024/01/01 09:49:21;;;;;;;10.53;1.97;;;9.50;99.90;;;;;;5014831;28;20459;-68
2024/01/01 09:51:47;;;;;;;4.47;1.90;;;9.50;99.90;;;;;;5021864;28;20212;-68
2024/01/01 09:54:13;;;;;;;4.10;1.80;;;9.60;99.90;;;;;;5016477;28;20856;-68
2024/01/01 09:56:39;;;;;;;5.17;2.13;;;9.70;99.90;;;;;;5016078;28;20275;-68
2024/01/01 09:59:04;;;;;;;8.00;2.60;;;9.70;99.90;;;;;;5015335;28;20181;-68
2024/01/01 10:01:31;;;;;;;5.00;1.60;;;9.80;99.90;;;;;;5020225;28;20425;-68
2024/01/01 10:04:02;;;;;;;3.30;1.60;;;9.80;99.90;;;;;;5013975;28;20209;-68
2024/01/01 10:06:29;;;;;;;3.50;1.90;;;9.90;99.90;;;;;;5020889;28;20415;-68
2024/01/01 10:09:06;;;;;;;5.80;2.33;;;10.00;99.90;;;;;;5019469;28;21031;-68
2024/01/01 10:11:31;;;;;;;7.90;1.80;;;10.10;99.90;;;;;;5019571;28;20482;-68
2024/01/01 10:14:03;;;;;;;5.10;2.00;;;10.10;99.90;;;;;;5017209;28;20466;-68
2024/01/01 10:16:29;;;;;;;5.77;2.60;;;10.00;99.90;;;;;;5013256;28;20177;-68
2024/01/01 10:18:59;;;;;;;4.07;1.93;;;9.90;99.90;;;;;;5016801;28;20511;-68
2024/01/01 10:21:30;;;;;;;11.10;2.33;;;9.90;99.90;;;;;;5018060;28;20192;-68
2024/01/01 10:23:58;;;;;;;7.83;2.20;;;9.90;99.90;;;;;;5021785;28;20534;-68
2024/01/01 10:26:24;;;;;;;6.83;1.80;;;10.00;99.90;;;;;;5017006;28;20506;-68
2024/01/01 10:28:50;;;;;;;7.03;1.90;;;9.90;99.90;;;;;;5012669;28;20457;-68
2024/01/01 10:31:15;;;;;;;6.90;1.70;;;10.00;99.90;;;;;;5017415;28;20447;-68
2024/01/01 10:33:42;;;;;;;4.70;1.67;;;9.90;99.90;;;;;;5014715;28;20201;-68
2024/01/01 10:36:08;;;;;;;6.97;2.43;;;9.90;99.90;;;;;;5018199;28;20422;-68
2024/01/01 10:38:36;;;;;;;9.47;3.37;;;9.80;99.90;;;;;;5019102;28;20446;-68
2024/01/01 10:41:02;;;;;;;3.10;2.00;;;9.80;99.90;;;;;;5016558;28;20531;-69
2024/01/01 10:43:28;;;;;;;4.30;2.20;;;9.70;99.90;;;;;;5016707;28;20463;-69
2024/01/01 10:46:05;;;;;;;6.03;2.27;;;9.80;99.90;;;;;;5015627;28;20427;-70
2024/01/01 10:48:32;;;;;;;3.33;2.00;;;9.90;99.90;;;;;;5014293;28;20917;-68
2024/01/01 10:51:10;;;;;;;4.60;1.90;;;10.00;99.90;;;;;;5016574;28;20418;-69
2024/01/01 10:54:02;;;;;;;5.00;1.63;;;10.00;99.90;;;;;;5014506;28;20443;-68
2024/01/01 10:56:52;;;;;;;6.93;2.50;;;10.00;99.90;;;;;;5011945;28;20494;-68
2024/01/01 10:59:21;;;;;;;6.20;2.83;;;10.10;99.90;;;;;;5015152;28;21097;-69
2024/01/01 11:01:51;;;;;;;6.93;2.40;;;10.10;99.90;;;;;;5019192;28;20412;-69
2024/01/01 11:04:21;;;;;;;5.60;1.97;;;10.10;99.90;;;;;;5014786;28;20531;-69
2024/01/01 11:06:46;;;;;;;6.57;1.90;;;10.10;99.90;;;;;;5016384;28;20495;-67
2024/01/01 11:09:21;;;;;;;4.90;2.07;;;10.10;99.90;;;;;;5010769;28;20459;-69
2024/01/01 11:11:52;;;;;;;13.13;3.00;;;10.10;99.90;;;;;;5014351;28;20211;-68
2024/01/01 11:14:29;;;;;;;6.27;2.70;;;10.00;99.90;;;;;;5012309;28;20579;-68
2024/01/01 11:16:57;;;;;;;6.20;2.30;;;10.00;99.90;;;;;;5019407;28;20617;-68
2024/01/01 11:19:39;;;;;;;8.30;2.10;;;10.00;99.90;;;;;;5020646;28;20876;-68
2024/01/01 11:22:20;;;;;;;5.93;1.93;;;10.00;99.90;;;;;;5010731;28;20435;-68
2024/01/01 11:24:47;;;;;;;8.37;2.53;;;10.10;99.90;;;;;;5017299;28;20482;-68
2024/01/01 11:27:32;;;;;;;7.23;2.70;;;10.30;99.90;;;;;;5015822;28;20489;-69
2024/01/01 11:30:04;;;;;;;6.60;2.50;;;10.30;99.90;;;;;;5012724;28;20416;-71
2024/01/01 11:32:30;;;;;;;7.60;2.20;;;10.40;99.90;;;;;;5014947;28;21104;-69
2024/01/01 11:35:13;;;;;;;6.10;2.67;;;10.40;99.90;;;;;;5011993;28;20450;-70
2024/01/01 11:37:40;;;;;;;11.33;3.47;;;10.30;99.90;;;;;;5009047;28;20188;-67
2024/01/01 11:40:07;;;;;;;14.90;5.10;;;10.30;99.90;;;;;;5018356;28;20415;-68
2024/01/01 11:42:34;;;;;;;8.10;2.10;;;10.30;99.90;;;;;;5011675;28;20416;-68
2024/01/01 11:45:17;;;;;;;6.10;2.40;;;10.30;99.90;;;;;;5013408;28;20550;-69
2024/01/01 11:47:43;;;;;;;9.20;2.40;;;10.30;99.90;;;;;;5009784;28;20486;-69
2024/01/01 11:50:10;;;;;;;5.73;2.33;;;10.20;99.90;;;;;;5007750;28;20408;-69
2024/01/01 11:52:36;;;;;;;6.63;2.93;;;10.20;99.90;;;;;;5014461;28;20509;-70
2024/01/01 11:55:02;;;;;;;6.87;2.63;;;10.10;99.90;;;;;;5020219;28;20446;-69
2024/01/01 11:57:28;;;;;;;7.47;2.67;;;10.20;99.90;;;;;;5017906;28;20443;-69
2024/01/01 11:59:54;;;;;;;8.03;2.67;;;10.20;99.90;;;;;;5019527;28;22606;-69
2024/01/01 12:02:22;;;;;;;7.50;2.67;;;10.30;99.90;;;;;;5016151;28;20272;-69
2024/01/01 12:04:50;;;;;;;7.13;2.70;;;10.50;99.90;;;;;;5017722;28;20542;-69
2024/01/01 12:07:29;;;;;;;8.37;2.63;;;10.60;99.90;;;;;;5014098;28;20411;-69
2024/01/01 12:10:25;;;;;;;7.43;2.30;;;10.60;99.90;;;;;;5015954;28;20423;-68
2024/01/01 12:12:59;;;;;;;4.60;2.50;;;10.50;99.90;;;;;;5015306;28;20475;-68
2024/01/01 12:15:30;;;;;;;8.40;2.77;;;10.60;99.90;;;;;;5014055;28;20512;-68
2024/01/01 12:17:56;;;;;;;6.27;2.10;;;10.70;99.90;;;;;;5012833;28;20423;-69
2024/01/01 12:20:23;;;;;;;5.73;2.27;;;10.70;99.90;;;;;;5009668;28;20795;-68
2024/01/01 12:22:50;;;;;;;8.20;2.70;;;10.80;99.90;;;;;;5020915;28;20530;-69
2024/01/01 12:25:23;;;;;;;8.00;2.40;;;10.80;99.90;;;;;;5021119;28;20439;-68
2024/01/01 12:28:05;;;;;;;8.97;2.40;;;10.70;99.90;;;;;;5017374;28;20419;-69
2024/01/01 12:30:33;;;;;;;10.00;2.60;;;10.60;99.90;;;;;;5021391;28;20792;-69
2024/01/01 12:32:59;;;;;;;6.40;2.67;;;10.70;99.90;;;;;;5020109;28;20839;-69
2024/01/01 12:35:25;;;;;;;8.17;2.70;;;10.60;99.90;;;;;;5016798;28;20423;-69
2024/01/01 12:37:51;;;;;;;7.47;3.10;;;10.60;99.90;;;;;;5016318;28;20434;-69
2024/01/01 12:40:17;;;;;;;7.87;3.23;;;10.50;99.90;;;;;;5020225;28;20266;-70
2024/01/01 12:42:44;;;;;;;9.00;3.10;;;10.50;99.90;;;;;;5015626;28;20466;-70
2024/01/01 12:45:12;;;;;;;7.07;2.00;;;10.60;99.90;;;;;;5014733;28;20416;-70
2024/01/01 12:47:38;;;;;;;9.20;2.70;;;10.50;99.90;;;;;;5015670;28;20434;-71
2024/01/01 12:50:05;;;;;;;10.27;2.67;;;10.50;99.90;;;;;;5014953;28;20416;-69